sensor_id;sensor_type;location;lat;lon;timestamp;P1;durP1;ratioP1;P2;durP2;ratioP2
70049;SDS011;57391;51.306;22.680;2023-04-06T00:01:19;9.00;;;4.80;;
70049;SDS011;57391;51.306;22.680;2023-04-06T00:03:46;9.10;;;4.10;;
70049;SDS011;57391;51.306;22.680;2023-04-06T00:06:13;9.70;;;4.20;;
70049;SDS011;57391;51.306;22.680;2023-04-06T00:08:40;8.30;;;4.00;;
70049;SDS011;57391;51.306;22.680;2023-04-06T00:11:07;12.20;;;4.20;;
70049;SDS011;57391;51.306;22.680;2023-04-06T00:13:35;8.10;;;3.40;;
70049;SDS011;57391;51.306;22.680;2023-04-06T00:16:02;9.10;;;4.10;;
70049;SDS011;57391;51.306;22.680;2023-04-06T00:18:32;8.20;;;3.30;;
70049;SDS011;57391;51.306;22.680;2023-04-06T00:20:59;9.60;;;4.20;;
70049;SDS011;57391;51.306;22.680;2023-04-06T00:23:27;8.90;;;3.60;;
70049;SDS011;57391;51.306;22.680;2023-04-06T00:25:54;8.10;;;3.70;;
70049;SDS011;57391;51.306;22.680;2023-04-06T00:28:22;11.10;;;4.70;;
70049;SDS011;57391;51.306;22.680;2023-04-06T00:30:53;8.30;;;4.30;;
70049;SDS011;57391;51.306;22.680;2023-04-06T00:33:22;8.90;;;3.70;;
70049;SDS011;57391;51.306;22.680;2023-04-06T00:35:49;10.80;;;4.40;;
70049;SDS011;57391;51.306;22.680;2023-04-06T00:38:17;7.30;;;4.10;;
70049;SDS011;57391;51.306;22.680;2023-04-06T00:40:44;7.80;;;3.70;;
70049;SDS011;57391;51.306;22.680;2023-04-06T00:43:12;7.80;;;3.20;;
70049;SDS011;57391;51.306;22.680;2023-04-06T00:45:41;8.10;;;4.20;;
70049;SDS011;57391;51.306;22.680;2023-04-06T00:48:08;7.60;;;3.50;;
70049;SDS011;57391;51.306;22.680;2023-04-06T00:50:35;8.10;;;3.50;;
70049;SDS011;57391;51.306;22.680;2023-04-06T00:53:02;7.10;;;3.80;;
70049;SDS011;57391;51.306;22.680;2023-04-06T00:55:29;8.80;;;3.90;;
70049;SDS011;57391;51.306;22.680;2023-04-06T00:57:58;8.80;;;3.80;;
70049;SDS011;57391;51.306;22.680;2023-04-06T01:00:28;10.20;;;3.80;;
70049;SDS011;57391;51.306;22.680;2023-04-06T01:02:58;9.00;;;3.70;;
70049;SDS011;57391;51.306;22.680;2023-04-06T01:05:34;7.70;;;3.70;;
70049;SDS011;57391;51.306;22.680;2023-04-06T01:08:09;6.00;;;2.60;;
70049;SDS011;57391;51.306;22.680;2023-04-06T01:10:37;7.60;;;3.50;;
70049;SDS011;57391;51.306;22.680;2023-04-06T01:13:22;7.20;;;2.90;;
70049;SDS011;57391;51.306;22.680;2023-04-06T01:15:55;11.00;;;3.80;;
70049;SDS011;57391;51.306;22.680;2023-04-06T01:18:31;7.60;;;3.70;;
70049;SDS011;57391;51.306;22.680;2023-04-06T01:21:09;7.30;;;3.30;;
70049;SDS011;57391;51.306;22.680;2023-04-06T01:23:46;8.60;;;3.70;;
70049;SDS011;57391;51.306;22.680;2023-04-06T01:26:15;9.80;;;3.30;;
70049;SDS011;57391;51.306;22.680;2023-04-06T01:28:44;7.90;;;3.80;;
70049;SDS011;57391;51.306;22.680;2023-04-06T01:31:26;7.00;;;3.10;;
70049;SDS011;57391;51.306;22.680;2023-04-06T01:33:54;8.20;;;3.40;;
70049;SDS011;57391;51.306;22.680;2023-04-06T01:36:24;7.80;;;2.70;;
70049;SDS011;57391;51.306;22.680;2023-04-06T01:39:02;7.50;;;3.20;;
70049;SDS011;57391;51.306;22.680;2023-04-06T01:41:33;7.40;;;3.10;;
70049;SDS011;57391;51.306;22.680;2023-04-06T01:44:02;8.90;;;3.30;;
70049;SDS011;57391;51.306;22.680;2023-04-06T01:46:30;8.50;;;3.30;;
70049;SDS011;57391;51.306;22.680;2023-04-06T01:48:58;7.70;;;3.10;;
70049;SDS011;57391;51.306;22.680;2023-04-06T01:51:36;8.30;;;3.30;;
70049;SDS011;57391;51.306;22.680;2023-04-06T01:54:05;7.90;;;3.50;;
70049;SDS011;57391;51.306;22.680;2023-04-06T01:56:53;9.70;;;3.70;;
70049;SDS011;57391;51.306;22.680;2023-04-06T01:59:47;8.20;;;3.20;;
70049;SDS011;57391;51.306;22.680;2023-04-06T02:02:22;7.50;;;3.20;;
70049;SDS011;57391;51.306;22.680;2023-04-06T02:04:57;7.70;;;2.90;;
70049;SDS011;57391;51.306;22.680;2023-04-06T02:07:25;6.50;;;2.90;;
70049;SDS011;57391;51.306;22.680;2023-04-06T02:09:54;6.90;;;3.00;;
70049;SDS011;57391;51.306;22.680;2023-04-06T02:12:25;7.40;;;3.20;;
70049;SDS011;57391;51.306;22.680;2023-04-06T02:14:52;7.50;;;2.90;;
70049;SDS011;57391;51.306;22.680;2023-04-06T02:17:20;7.10;;;3.10;;
70049;SDS011;57391;51.306;22.680;2023-04-06T02:19:47;6.50;;;2.60;;
70049;SDS011;57391;51.306;22.680;2023-04-06T02:22:14;6.30;;;3.20;;
70049;SDS011;57391;51.306;22.680;2023-04-06T02:24:41;6.40;;;3.30;;
70049;SDS011;57391;51.306;22.680;2023-04-06T02:27:08;6.30;;;3.00;;
70049;SDS011;57391;51.306;22.680;2023-04-06T02:29:36;6.40;;;3.10;;
70049;SDS011;57391;51.306;22.680;2023-04-06T02:32:03;5.50;;;2.70;;
70049;SDS011;57391;51.306;22.680;2023-04-06T02:34:32;6.00;;;2.90;;
70049;SDS011;57391;51.306;22.680;2023-04-06T02:36:59;8.20;;;2.90;;
70049;SDS011;57391;51.306;22.680;2023-04-06T02:39:27;6.90;;;2.70;;
70049;SDS011;57391;51.306;22.680;2023-04-06T02:41:54;7.40;;;3.50;;
70049;SDS011;57391;51.306;22.680;2023-04-06T02:44:23;6.90;;;2.90;;
70049;SDS011;57391;51.306;22.680;2023-04-06T02:46:51;6.30;;;2.50;;
70049;SDS011;57391;51.306;22.680;2023-04-06T02:49:19;6.70;;;2.90;;
70049;SDS011;57391;51.306;22.680;2023-04-06T02:51:46;7.80;;;3.00;;
70049;SDS011;57391;51.306;22.680;2023-04-06T02:54:24;5.40;;;2.60;;
70049;SDS011;57391;51.306;22.680;2023-04-06T02:56:52;7.50;;;3.00;;
70049;SDS011;57391;51.306;22.680;2023-04-06T02:59:19;5.50;;;2.50;;
70049;SDS011;57391;51.306;22.680;2023-04-06T03:01:56;6.80;;;2.50;;
70049;SDS011;57391;51.306;22.680;2023-04-06T03:04:23;6.60;;;3.00;;
70049;SDS011;57391;51.306;22.680;2023-04-06T03:06:53;7.50;;;3.30;;
70049;SDS011;57391;51.306;22.680;2023-04-06T03:09:30;9.60;;;3.50;;
70049;SDS011;57391;51.306;22.680;2023-04-06T03:11:58;6.00;;;3.00;;
70049;SDS011;57391;51.306;22.680;2023-04-06T03:14:27;6.30;;;2.90;;
70049;SDS011;57391;51.306;22.680;2023-04-06T03:16:56;8.90;;;3.20;;
70049;SDS011;57391;51.306;22.680;2023-04-06T03:19:23;5.20;;;2.30;;
70049;SDS011;57391;51.306;22.680;2023-04-06T03:21:51;8.40;;;3.60;;
70049;SDS011;57391;51.306;22.680;2023-04-06T03:24:19;5.90;;;2.70;;
70049;SDS011;57391;51.306;22.680;2023-04-06T03:26:46;7.40;;;3.10;;
70049;SDS011;57391;51.306;22.680;2023-04-06T03:29:14;7.00;;;2.90;;
70049;SDS011;57391;51.306;22.680;2023-04-06T03:31:41;6.30;;;2.90;;
70049;SDS011;57391;51.306;22.680;2023-04-06T03:34:25;6.90;;;3.40;;
70049;SDS011;57391;51.306;22.680;2023-04-06T03:36:52;6.10;;;2.90;;
70049;SDS011;57391;51.306;22.680;2023-04-06T03:39:19;7.50;;;3.10;;
70049;SDS011;57391;51.306;22.680;2023-04-06T03:41:47;8.50;;;3.10;;
70049;SDS011;57391;51.306;22.680;2023-04-06T03:44:29;7.10;;;3.10;;
70049;SDS011;57391;51.306;22.680;2023-04-06T03:46:56;7.30;;;3.70;;
70049;SDS011;57391;51.306;22.680;2023-04-06T03:49:23;8.20;;;3.40;;
70049;SDS011;57391;51.306;22.680;2023-04-06T03:51:52;8.10;;;3.90;;
70049;SDS011;57391;51.306;22.680;2023-04-06T03:54:20;7.50;;;3.10;;
70049;SDS011;57391;51.306;22.680;2023-04-06T03:56:47;7.00;;;3.00;;
70049;SDS011;57391;51.306;22.680;2023-04-06T03:59:14;6.40;;;3.50;;
70049;SDS011;57391;51.306;22.680;2023-04-06T04:01:42;5.80;;;2.60;;
70049;SDS011;57391;51.306;22.680;2023-04-06T04:04:10;7.80;;;3.50;;
70049;SDS011;57391;51.306;22.680;2023-04-06T04:06:37;7.40;;;3.20;;
70049;SDS011;57391;51.306;22.680;2023-04-06T04:09:05;5.60;;;2.90;;
70049;SDS011;57391;51.306;22.680;2023-04-06T04:11:33;9.00;;;3.60;;
70049;SDS011;57391;51.306;22.680;2023-04-06T04:14:00;8.60;;;4.40;;
70049;SDS011;57391;51.306;22.680;2023-04-06T04:16:27;8.80;;;3.80;;
70049;SDS011;57391;51.306;22.680;2023-04-06T04:18:55;7.60;;;3.70;;
70049;SDS011;57391;51.306;22.680;2023-04-06T04:21:23;8.60;;;3.40;;
70049;SDS011;57391;51.306;22.680;2023-04-06T04:23:52;7.10;;;3.50;;
70049;SDS011;57391;51.306;22.680;2023-04-06T04:26:19;7.00;;;3.40;;
70049;SDS011;57391;51.306;22.680;2023-04-06T04:28:46;6.00;;;2.90;;
70049;SDS011;57391;51.306;22.680;2023-04-06T04:31:14;7.60;;;3.60;;
70049;SDS011;57391;51.306;22.680;2023-04-06T04:33:45;6.10;;;2.70;;
70049;SDS011;57391;51.306;22.680;2023-04-06T04:36:14;5.80;;;2.50;;
70049;SDS011;57391;51.306;22.680;2023-04-06T04:38:43;7.90;;;3.00;;
70049;SDS011;57391;51.306;22.680;2023-04-06T04:41:11;5.90;;;3.00;;
70049;SDS011;57391;51.306;22.680;2023-04-06T04:43:40;8.60;;;3.50;;
70049;SDS011;57391;51.306;22.680;2023-04-06T04:46:07;7.70;;;3.10;;
70049;SDS011;57391;51.306;22.680;2023-04-06T04:48:38;9.00;;;4.20;;
70049;SDS011;57391;51.306;22.680;2023-04-06T04:51:06;10.50;;;4.50;;
70049;SDS011;57391;51.306;22.680;2023-04-06T04:54:04;10.00;;;4.30;;
70049;SDS011;57391;51.306;22.680;2023-04-06T04:56:32;10.10;;;4.30;;
70049;SDS011;57391;51.306;22.680;2023-04-06T04:59:07;8.60;;;3.90;;
70049;SDS011;57391;51.306;22.680;2023-04-06T05:01:36;9.10;;;4.70;;
70049;SDS011;57391;51.306;22.680;2023-04-06T05:04:03;9.50;;;5.00;;
70049;SDS011;57391;51.306;22.680;2023-04-06T05:06:31;8.70;;;4.30;;
70049;SDS011;57391;51.306;22.680;2023-04-06T05:08:58;10.00;;;4.10;;
70049;SDS011;57391;51.306;22.680;2023-04-06T05:11:26;9.30;;;4.20;;
70049;SDS011;57391;51.306;22.680;2023-04-06T05:13:57;10.40;;;4.70;;
70049;SDS011;57391;51.306;22.680;2023-04-06T05:16:24;11.00;;;5.10;;
70049;SDS011;57391;51.306;22.680;2023-04-06T05:18:52;10.30;;;4.30;;
70049;SDS011;57391;51.306;22.680;2023-04-06T05:21:20;8.40;;;3.30;;
70049;SDS011;57391;51.306;22.680;2023-04-06T05:24:02;9.20;;;4.10;;
70049;SDS011;57391;51.306;22.680;2023-04-06T05:26:31;10.30;;;4.30;;
70049;SDS011;57391;51.306;22.680;2023-04-06T05:29:01;9.00;;;4.50;;
70049;SDS011;57391;51.306;22.680;2023-04-06T05:31:30;10.00;;;4.50;;
70049;SDS011;57391;51.306;22.680;2023-04-06T05:33:58;13.50;;;5.10;;
70049;SDS011;57391;51.306;22.680;2023-04-06T05:36:32;9.40;;;4.10;;
70049;SDS011;57391;51.306;22.680;2023-04-06T05:39:02;11.50;;;5.00;;
70049;SDS011;57391;51.306;22.680;2023-04-06T05:41:40;10.60;;;4.30;;
70049;SDS011;57391;51.306;22.680;2023-04-06T05:44:07;10.10;;;3.90;;
70049;SDS011;57391;51.306;22.680;2023-04-06T05:46:35;10.90;;;4.30;;
70049;SDS011;57391;51.306;22.680;2023-04-06T05:49:03;8.00;;;3.90;;
70049;SDS011;57391;51.306;22.680;2023-04-06T05:51:32;7.30;;;3.60;;
70049;SDS011;57391;51.306;22.680;2023-04-06T05:54:00;8.30;;;4.00;;
70049;SDS011;57391;51.306;22.680;2023-04-06T05:56:28;8.70;;;3.90;;
70049;SDS011;57391;51.306;22.680;2023-04-06T05:58:57;7.70;;;3.40;;
70049;SDS011;57391;51.306;22.680;2023-04-06T06:01:27;7.20;;;3.60;;
70049;SDS011;57391;51.306;22.680;2023-04-06T06:03:55;7.20;;;3.10;;
70049;SDS011;57391;51.306;22.680;2023-04-06T06:06:27;11.00;;;4.80;;
70049;SDS011;57391;51.306;22.680;2023-04-06T06:09:09;8.40;;;3.60;;
70049;SDS011;57391;51.306;22.680;2023-04-06T06:11:41;8.90;;;4.10;;
70049;SDS011;57391;51.306;22.680;2023-04-06T06:14:09;9.60;;;4.30;;
70049;SDS011;57391;51.306;22.680;2023-04-06T06:16:38;10.40;;;4.50;;
70049;SDS011;57391;51.306;22.680;2023-04-06T06:19:05;10.60;;;4.80;;
70049;SDS011;57391;51.306;22.680;2023-04-06T06:21:32;12.20;;;4.70;;
70049;SDS011;57391;51.306;22.680;2023-04-06T06:24:01;10.00;;;3.90;;
70049;SDS011;57391;51.306;22.680;2023-04-06T06:26:29;6.90;;;3.30;;
70049;SDS011;57391;51.306;22.680;2023-04-06T06:28:57;8.60;;;3.80;;
70049;SDS011;57391;51.306;22.680;2023-04-06T06:31:24;9.40;;;4.20;;
70049;SDS011;57391;51.306;22.680;2023-04-06T06:33:51;8.70;;;3.90;;
70049;SDS011;57391;51.306;22.680;2023-04-06T06:36:19;9.20;;;4.10;;
70049;SDS011;57391;51.306;22.680;2023-04-06T06:38:46;7.80;;;3.90;;
70049;SDS011;57391;51.306;22.680;2023-04-06T06:41:16;10.40;;;3.90;;
70049;SDS011;57391;51.306;22.680;2023-04-06T06:43:43;8.90;;;4.60;;
70049;SDS011;57391;51.306;22.680;2023-04-06T06:46:12;9.50;;;4.20;;
70049;SDS011;57391;51.306;22.680;2023-04-06T06:48:40;10.40;;;4.90;;
70049;SDS011;57391;51.306;22.680;2023-04-06T06:51:06;9.00;;;4.00;;
70049;SDS011;57391;51.306;22.680;2023-04-06T06:53:35;9.50;;;3.90;;
70049;SDS011;57391;51.306;22.680;2023-04-06T06:56:03;8.50;;;4.30;;
70049;SDS011;57391;51.306;22.680;2023-04-06T06:58:30;8.80;;;4.40;;
70049;SDS011;57391;51.306;22.680;2023-04-06T07:00:59;7.50;;;2.90;;
70049;SDS011;57391;51.306;22.680;2023-04-06T07:03:27;8.20;;;4.30;;
70049;SDS011;57391;51.306;22.680;2023-04-06T07:05:54;7.90;;;3.50;;
70049;SDS011;57391;51.306;22.680;2023-04-06T07:08:23;9.70;;;3.60;;
70049;SDS011;57391;51.306;22.680;2023-04-06T07:10:52;7.00;;;3.30;;
70049;SDS011;57391;51.306;22.680;2023-04-06T07:13:20;10.00;;;4.30;;
70049;SDS011;57391;51.306;22.680;2023-04-06T07:15:52;9.10;;;4.30;;
70049;SDS011;57391;51.306;22.680;2023-04-06T07:18:20;11.60;;;4.40;;
70049;SDS011;57391;51.306;22.680;2023-04-06T07:20:48;11.00;;;5.00;;
70049;SDS011;57391;51.306;22.680;2023-04-06T07:23:16;6.90;;;3.60;;
70049;SDS011;57391;51.306;22.680;2023-04-06T07:25:44;11.00;;;4.10;;
70049;SDS011;57391;51.306;22.680;2023-04-06T07:28:12;9.00;;;3.70;;
70049;SDS011;57391;51.306;22.680;2023-04-06T07:30:40;10.60;;;4.10;;
70049;SDS011;57391;51.306;22.680;2023-04-06T07:33:08;8.20;;;3.70;;
70049;SDS011;57391;51.306;22.680;2023-04-06T07:35:36;7.30;;;4.00;;
70049;SDS011;57391;51.306;22.680;2023-04-06T07:38:03;8.20;;;3.90;;
70049;SDS011;57391;51.306;22.680;2023-04-06T07:40:31;9.10;;;4.40;;
70049;SDS011;57391;51.306;22.680;2023-04-06T07:42:59;10.50;;;4.90;;
70049;SDS011;57391;51.306;22.680;2023-04-06T07:45:29;8.00;;;3.60;;
70049;SDS011;57391;51.306;22.680;2023-04-06T07:47:57;6.30;;;3.70;;
70049;SDS011;57391;51.306;22.680;2023-04-06T07:50:25;9.30;;;4.70;;
70049;SDS011;57391;51.306;22.680;2023-04-06T07:52:53;7.70;;;4.00;;
70049;SDS011;57391;51.306;22.680;2023-04-06T07:55:20;9.00;;;4.50;;
70049;SDS011;57391;51.306;22.680;2023-04-06T07:57:48;8.50;;;4.30;;
70049;SDS011;57391;51.306;22.680;2023-04-06T08:00:15;7.60;;;4.40;;
70049;SDS011;57391;51.306;22.680;2023-04-06T08:02:42;9.80;;;4.30;;
70049;SDS011;57391;51.306;22.680;2023-04-06T08:05:10;10.20;;;4.70;;
70049;SDS011;57391;51.306;22.680;2023-04-06T08:07:38;8.90;;;4.70;;
70049;SDS011;57391;51.306;22.680;2023-04-06T08:10:05;7.90;;;4.30;;
70049;SDS011;57391;51.306;22.680;2023-04-06T08:12:33;7.90;;;3.80;;
70049;SDS011;57391;51.306;22.680;2023-04-06T08:15:01;9.10;;;4.50;;
70049;SDS011;57391;51.306;22.680;2023-04-06T08:17:29;8.90;;;4.70;;
70049;SDS011;57391;51.306;22.680;2023-04-06T08:19:57;10.10;;;4.80;;
70049;SDS011;57391;51.306;22.680;2023-04-06T08:22:25;10.80;;;4.00;;
70049;SDS011;57391;51.306;22.680;2023-04-06T08:24:52;7.90;;;4.20;;
70049;SDS011;57391;51.306;22.680;2023-04-06T08:27:20;10.40;;;5.40;;
70049;SDS011;57391;51.306;22.680;2023-04-06T08:29:49;8.00;;;4.00;;
70049;SDS011;57391;51.306;22.680;2023-04-06T08:32:18;8.90;;;4.50;;
70049;SDS011;57391;51.306;22.680;2023-04-06T08:34:45;8.40;;;4.50;;
70049;SDS011;57391;51.306;22.680;2023-04-06T08:37:13;6.20;;;3.70;;
70049;SDS011;57391;51.306;22.680;2023-04-06T08:39:40;8.20;;;4.40;;
70049;SDS011;57391;51.306;22.680;2023-04-06T08:42:21;9.40;;;5.20;;
70049;SDS011;57391;51.306;22.680;2023-04-06T08:44:53;8.80;;;4.60;;
70049;SDS011;57391;51.306;22.680;2023-04-06T08:47:22;9.30;;;4.40;;
70049;SDS011;57391;51.306;22.680;2023-04-06T08:49:50;7.70;;;4.00;;
70049;SDS011;57391;51.306;22.680;2023-04-06T08:52:18;8.60;;;4.50;;
70049;SDS011;57391;51.306;22.680;2023-04-06T08:54:49;8.60;;;4.30;;
70049;SDS011;57391;51.306;22.680;2023-04-06T08:57:17;7.90;;;4.70;;
70049;SDS011;57391;51.306;22.680;2023-04-06T08:59:46;7.00;;;3.50;;
70049;SDS011;57391;51.306;22.680;2023-04-06T09:02:17;8.60;;;5.00;;
70049;SDS011;57391;51.306;22.680;2023-04-06T09:04:48;8.20;;;4.00;;
70049;SDS011;57391;51.306;22.680;2023-04-06T09:07:16;7.80;;;4.00;;
70049;SDS011;57391;51.306;22.680;2023-04-06T09:09:43;8.10;;;4.40;;
70049;SDS011;57391;51.306;22.680;2023-04-06T09:12:28;9.20;;;5.00;;
70049;SDS011;57391;51.306;22.680;2023-04-06T09:14:57;7.40;;;4.30;;
70049;SDS011;57391;51.306;22.680;2023-04-06T09:17:27;7.70;;;3.40;;
70049;SDS011;57391;51.306;22.680;2023-04-06T09:19:57;9.50;;;4.50;;
70049;SDS011;57391;51.306;22.680;2023-04-06T09:22:24;8.40;;;4.20;;
70049;SDS011;57391;51.306;22.680;2023-04-06T09:24:54;6.80;;;3.90;;
70049;SDS011;57391;51.306;22.680;2023-04-06T09:27:35;9.00;;;4.40;;
70049;SDS011;57391;51.306;22.680;2023-04-06T09:30:10;8.70;;;3.30;;
70049;SDS011;57391;51.306;22.680;2023-04-06T09:32:51;8.60;;;4.10;;
70049;SDS011;57391;51.306;22.680;2023-04-06T09:35:20;7.50;;;3.70;;
70049;SDS011;57391;51.306;22.680;2023-04-06T09:37:50;6.10;;;3.70;;
70049;SDS011;57391;51.306;22.680;2023-04-06T09:40:19;6.80;;;3.70;;
70049;SDS011;57391;51.306;22.680;2023-04-06T09:42:49;7.90;;;3.80;;
70049;SDS011;57391;51.306;22.680;2023-04-06T09:45:19;8.80;;;4.10;;
70049;SDS011;57391;51.306;22.680;2023-04-06T09:47:47;7.90;;;4.20;;
70049;SDS011;57391;51.306;22.680;2023-04-06T09:50:17;8.50;;;3.90;;
70049;SDS011;57391;51.306;22.680;2023-04-06T09:52:50;11.40;;;6.00;;
70049;SDS011;57391;51.306;22.680;2023-04-06T09:55:30;10.70;;;5.70;;
70049;SDS011;57391;51.306;22.680;2023-04-06T09:58:06;11.90;;;6.90;;
70049;SDS011;57391;51.306;22.680;2023-04-06T10:00:47;11.40;;;6.30;;
70049;SDS011;57391;51.306;22.680;2023-04-06T10:06:24;12.30;;;5.50;;
70049;SDS011;57391;51.306;22.680;2023-04-06T10:08:55;27.50;;;7.90;;
70049;SDS011;57391;51.306;22.680;2023-04-06T10:11:23;14.90;;;6.00;;
70049;SDS011;57391;51.306;22.680;2023-04-06T10:13:50;12.50;;;5.20;;
70049;SDS011;57391;51.306;22.680;2023-04-06T10:16:18;8.90;;;5.00;;
70049;SDS011;57391;51.306;22.680;2023-04-06T10:18:54;9.20;;;4.60;;
70049;SDS011;57391;51.306;22.680;2023-04-06T10:21:32;7.80;;;4.00;;
70049;SDS011;57391;51.306;22.680;2023-04-06T10:24:06;7.50;;;4.30;;
70049;SDS011;57391;51.306;22.680;2023-04-06T10:26:37;7.40;;;3.80;;
70049;SDS011;57391;51.306;22.680;2023-04-06T10:29:04;6.90;;;4.10;;
70049;SDS011;57391;51.306;22.680;2023-04-06T10:31:32;8.70;;;4.50;;
70049;SDS011;57391;51.306;22.680;2023-04-06T10:34:01;8.90;;;4.60;;
70049;SDS011;57391;51.306;22.680;2023-04-06T10:36:35;6.50;;;3.40;;
70049;SDS011;57391;51.306;22.680;2023-04-06T10:39:07;7.20;;;3.60;;
70049;SDS011;57391;51.306;22.680;2023-04-06T10:41:45;7.20;;;3.60;;
70049;SDS011;57391;51.306;22.680;2023-04-06T10:44:22;6.30;;;3.30;;
70049;SDS011;57391;51.306;22.680;2023-04-06T10:46:53;8.70;;;3.80;;
70049;SDS011;57391;51.306;22.680;2023-04-06T10:49:21;7.60;;;4.00;;
70049;SDS011;57391;51.306;22.680;2023-04-06T10:51:56;8.20;;;4.10;;
70049;SDS011;57391;51.306;22.680;2023-04-06T10:54:25;7.90;;;4.20;;
70049;SDS011;57391;51.306;22.680;2023-04-06T10:56:53;7.50;;;4.30;;
70049;SDS011;57391;51.306;22.680;2023-04-06T10:59:21;7.80;;;4.00;;
70049;SDS011;57391;51.306;22.680;2023-04-06T11:01:50;6.10;;;3.10;;
70049;SDS011;57391;51.306;22.680;2023-04-06T11:04:19;6.40;;;3.30;;
70049;SDS011;57391;51.306;22.680;2023-04-06T11:06:49;6.70;;;3.80;;
70049;SDS011;57391;51.306;22.680;2023-04-06T11:09:27;7.80;;;3.80;;
70049;SDS011;57391;51.306;22.680;2023-04-06T11:11:56;7.90;;;3.80;;
70049;SDS011;57391;51.306;22.680;2023-04-06T11:14:23;9.00;;;5.10;;
70049;SDS011;57391;51.306;22.680;2023-04-06T11:16:52;9.90;;;5.00;;
70049;SDS011;57391;51.306;22.680;2023-04-06T11:19:20;11.20;;;5.90;;
70049;SDS011;57391;51.306;22.680;2023-04-06T11:21:48;11.10;;;5.20;;
70049;SDS011;57391;51.306;22.680;2023-04-06T11:24:23;6.60;;;3.70;;
70049;SDS011;57391;51.306;22.680;2023-04-06T11:26:54;6.70;;;3.20;;
70049;SDS011;57391;51.306;22.680;2023-04-06T11:29:24;8.00;;;4.00;;
70049;SDS011;57391;51.306;22.680;2023-04-06T11:32:04;5.80;;;2.90;;
70049;SDS011;57391;51.306;22.680;2023-04-06T11:34:37;7.80;;;4.00;;
70049;SDS011;57391;51.306;22.680;2023-04-06T11:37:09;8.10;;;4.50;;
70049;SDS011;57391;51.306;22.680;2023-04-06T11:39:49;6.50;;;3.20;;
70049;SDS011;57391;51.306;22.680;2023-04-06T11:42:25;6.40;;;3.60;;
70049;SDS011;57391;51.306;22.680;2023-04-06T11:44:57;6.50;;;3.50;;
70049;SDS011;57391;51.306;22.680;2023-04-06T11:47:34;6.30;;;3.20;;
70049;SDS011;57391;51.306;22.680;2023-04-06T11:50:12;7.60;;;4.20;;
70049;SDS011;57391;51.306;22.680;2023-04-06T11:52:41;7.70;;;3.70;;
70049;SDS011;57391;51.306;22.680;2023-04-06T11:55:17;7.90;;;4.00;;
70049;SDS011;57391;51.306;22.680;2023-04-06T11:57:45;7.40;;;4.00;;
70049;SDS011;57391;51.306;22.680;2023-04-06T12:00:13;7.80;;;3.80;;
70049;SDS011;57391;51.306;22.680;2023-04-06T12:02:45;8.00;;;3.90;;
70049;SDS011;57391;51.306;22.680;2023-04-06T12:05:14;6.90;;;3.50;;
70049;SDS011;57391;51.306;22.680;2023-04-06T12:07:41;6.60;;;3.20;;
70049;SDS011;57391;51.306;22.680;2023-04-06T12:10:09;6.90;;;3.40;;
70049;SDS011;57391;51.306;22.680;2023-04-06T12:12:36;6.60;;;4.00;;
70049;SDS011;57391;51.306;22.680;2023-04-06T12:15:07;7.70;;;4.20;;
70049;SDS011;57391;51.306;22.680;2023-04-06T12:17:40;7.60;;;3.70;;
70049;SDS011;57391;51.306;22.680;2023-04-06T12:20:08;8.10;;;4.00;;
70049;SDS011;57391;51.306;22.680;2023-04-06T12:22:38;6.80;;;3.50;;
70049;SDS011;57391;51.306;22.680;2023-04-06T12:25:10;7.70;;;4.10;;
70049;SDS011;57391;51.306;22.680;2023-04-06T12:27:38;6.70;;;3.80;;
70049;SDS011;57391;51.306;22.680;2023-04-06T12:30:07;7.30;;;4.10;;
70049;SDS011;57391;51.306;22.680;2023-04-06T12:32:34;6.60;;;3.40;;
70049;SDS011;57391;51.306;22.680;2023-04-06T12:35:02;8.80;;;5.40;;
70049;SDS011;57391;51.306;22.680;2023-04-06T12:37:29;9.10;;;5.30;;
70049;SDS011;57391;51.306;22.680;2023-04-06T12:39:58;6.80;;;3.60;;
70049;SDS011;57391;51.306;22.680;2023-04-06T12:42:31;8.10;;;4.60;;
70049;SDS011;57391;51.306;22.680;2023-04-06T12:45:00;8.10;;;4.60;;
70049;SDS011;57391;51.306;22.680;2023-04-06T12:47:27;8.80;;;4.80;;
70049;SDS011;57391;51.306;22.680;2023-04-06T12:49:55;10.40;;;5.30;;
70049;SDS011;57391;51.306;22.680;2023-04-06T12:52:22;8.50;;;4.60;;
70049;SDS011;57391;51.306;22.680;2023-04-06T12:54:49;6.90;;;3.80;;
70049;SDS011;57391;51.306;22.680;2023-04-06T12:57:18;9.60;;;4.80;;
70049;SDS011;57391;51.306;22.680;2023-04-06T12:59:45;9.10;;;4.60;;
70049;SDS011;57391;51.306;22.680;2023-04-06T13:02:13;8.20;;;4.70;;
70049;SDS011;57391;51.306;22.680;2023-04-06T13:04:40;7.30;;;4.40;;
70049;SDS011;57391;51.306;22.680;2023-04-06T13:07:07;7.00;;;4.00;;
70049;SDS011;57391;51.306;22.680;2023-04-06T13:09:34;7.10;;;3.90;;
70049;SDS011;57391;51.306;22.680;2023-04-06T13:12:03;8.40;;;4.90;;
70049;SDS011;57391;51.306;22.680;2023-04-06T13:14:30;8.20;;;4.20;;
70049;SDS011;57391;51.306;22.680;2023-04-06T13:16:59;6.20;;;3.80;;
70049;SDS011;57391;51.306;22.680;2023-04-06T13:19:27;6.20;;;3.10;;
70049;SDS011;57391;51.306;22.680;2023-04-06T13:21:53;7.30;;;4.00;;
70049;SDS011;57391;51.306;22.680;2023-04-06T13:24:21;6.00;;;3.30;;
70049;SDS011;57391;51.306;22.680;2023-04-06T13:26:51;6.40;;;3.90;;
70049;SDS011;57391;51.306;22.680;2023-04-06T13:29:18;8.80;;;4.80;;
70049;SDS011;57391;51.306;22.680;2023-04-06T13:31:45;9.90;;;4.70;;
70049;SDS011;57391;51.306;22.680;2023-04-06T13:34:12;9.50;;;4.80;;
70049;SDS011;57391;51.306;22.680;2023-04-06T13:36:39;9.50;;;5.10;;
70049;SDS011;57391;51.306;22.680;2023-04-06T13:39:08;9.20;;;4.70;;
70049;SDS011;57391;51.306;22.680;2023-04-06T13:41:35;7.70;;;4.80;;
70049;SDS011;57391;51.306;22.680;2023-04-06T13:44:02;9.20;;;4.00;;
70049;SDS011;57391;51.306;22.680;2023-04-06T13:46:29;9.70;;;4.80;;
70049;SDS011;57391;51.306;22.680;2023-04-06T13:48:56;8.70;;;4.50;;
70049;SDS011;57391;51.306;22.680;2023-04-06T13:51:24;7.40;;;3.80;;
70049;SDS011;57391;51.306;22.680;2023-04-06T13:53:51;7.10;;;3.80;;
70049;SDS011;57391;51.306;22.680;2023-04-06T13:56:20;9.80;;;5.40;;
70049;SDS011;57391;51.306;22.680;2023-04-06T13:58:47;9.80;;;5.70;;
70049;SDS011;57391;51.306;22.680;2023-04-06T14:01:14;8.30;;;4.50;;
70049;SDS011;57391;51.306;22.680;2023-04-06T14:03:41;12.00;;;5.70;;
70049;SDS011;57391;51.306;22.680;2023-04-06T14:06:12;8.40;;;4.40;;
70049;SDS011;57391;51.306;22.680;2023-04-06T14:08:40;10.70;;;4.90;;
70049;SDS011;57391;51.306;22.680;2023-04-06T14:11:11;11.50;;;6.40;;
70049;SDS011;57391;51.306;22.680;2023-04-06T14:13:40;10.30;;;5.70;;
70049;SDS011;57391;51.306;22.680;2023-04-06T14:16:08;9.50;;;4.70;;
70049;SDS011;57391;51.306;22.680;2023-04-06T14:18:36;9.50;;;4.80;;
70049;SDS011;57391;51.306;22.680;2023-04-06T14:21:04;12.40;;;6.00;;
70049;SDS011;57391;51.306;22.680;2023-04-06T14:23:33;9.10;;;5.20;;
70049;SDS011;57391;51.306;22.680;2023-04-06T14:26:03;9.50;;;5.30;;
70049;SDS011;57391;51.306;22.680;2023-04-06T14:28:33;9.70;;;5.90;;
70049;SDS011;57391;51.306;22.680;2023-04-06T14:31:10;9.80;;;5.30;;
70049;SDS011;57391;51.306;22.680;2023-04-06T14:33:40;11.00;;;6.40;;
70049;SDS011;57391;51.306;22.680;2023-04-06T14:36:08;8.90;;;5.10;;
70049;SDS011;57391;51.306;22.680;2023-04-06T14:38:36;7.90;;;4.50;;
70049;SDS011;57391;51.306;22.680;2023-04-06T14:41:05;9.10;;;5.20;;
70049;SDS011;57391;51.306;22.680;2023-04-06T14:43:32;10.20;;;6.00;;
70049;SDS011;57391;51.306;22.680;2023-04-06T14:46:01;10.00;;;5.20;;
70049;SDS011;57391;51.306;22.680;2023-04-06T14:48:29;9.10;;;5.10;;
70049;SDS011;57391;51.306;22.680;2023-04-06T14:50:57;8.80;;;4.60;;